Terminal Aerodrome Forecast
Issued by NWS Jackson, KY

Home | Current Version | Previous Version | Text Only | Print | Product List | Glossary On
Versions: 1 2 3 4 5 6 7 8 9 10 11 12 13 14 15 16 17 18
306
FTUS43 KJKL 112339
TAFLOZ
TAF
KLOZ 112339Z 1200/1224 VRB06KT P6SM SCT100
     FM120400 VRB03KT P6SM BKN060
     FM121100 VRB05KT 6SM -SHSN BR BKN025 OVC050
     FM121300 26007KT 2SM -SHSN BR SCT008 BKN015 OVC030
     FM122100 29008KT 6SM -SHSN BR SCT015 OVC030=

USA.gov is the U.S. government's official web portal to all federal, state and local government web resources and services.